• Join FlightAware (Why Join?)
  • Login
  • US Flag 
07:23AM EDT


 

Airport Tracker/Info


-or-


 

Live Flight TrackerFlight Track Log ✈ LBQ792 ✈ 07-May-2013 ✈ KRDG - KELM

Flight Track Log - Related Links

Times and Time Zones

All times are in EDT time to prevent confusion due to time zone crossing. See the LBQ792 flight status page for this flight to view local times or setup timezone preferences in your user account.

Time Position Orientation Groundspeed Altitude Reporting Facility
EDT Latitude Longitude Course Direction KTS MPH feet Rate Location/Type
08:35PM 40.4264 -76.1994 352° North 231 266 5,000  Level New York Center
08:36PM 40.4517 -76.2806 292° West 239 275 5,800 1,140 Climbing New York Center
08:37PM 40.4756 -76.3533 293° West 227 261 7,300 1,440 Climbing New York Center
08:38PM 40.5167 -76.4374 270° West  Level FlightAware Approximate
08:38PM 40.5247 -76.3711 345° North 186 214 8,700  Level New York Center
08:39PM 40.5363 -76.5284 288° West  Level FlightAware Approximate
08:39PM 40.5783 -76.3836 350° North 181 208 10,200  Level New York Center
08:40PM 40.5775 -76.5925 346° North  Level FlightAware Approximate
08:40PM 40.6294 -76.4014 345° North 187 215 11,500  Level New York Center
08:41PM 40.6489 -76.6028 352° North  Level FlightAware Approximate
08:41PM 40.6889 -76.4200 347° North 203 234 12,000  Level New York Center
08:42PM 40.7547 -76.4392 348° North 224 258 12,000  Level New York Center
08:43PM 40.8267 -76.4642 345° North 261 300 12,000  Level New York Center
08:44PM 40.8964 -76.4867 346° North 261 300 12,000  Level New York Center
08:45PM 40.9622 -76.5031 349° North 261 300 12,000  Level New York Center
08:46PM 41.0339 -76.5256 347° North 256 295 12,000  Level New York Center
08:47PM 41.1119 -76.5489 347° North 256 295 12,000  Level New York Center
08:48PM 41.1858 -76.5744 345° North 256 295 12,000  Level New York Center
08:49PM 41.2556 -76.5969 346° North 256 295 12,000  Level New York Center
08:50PM 41.3211 -76.6192 346° North 256 295 12,000  Level New York Center
08:51PM 41.3911 -76.6392 348° North 256 295 12,000  Level New York Center
08:52PM 41.4689 -76.6653 346° North 256 295 12,000  Level New York Center
08:53PM 41.5406 -76.6883 346° North 256 295 12,000 -240 Level New York Center
08:54PM 41.6061 -76.7133 344° North 263 303 11,600 -900 Descending New York Center
08:55PM 41.6839 -76.7369 347° North 269 310 10,300 -1,380 Descending New York Center
08:56PM 41.7578 -76.7603 347° North 275 316 9,000 -1,260 Descending New York Center
08:57PM 41.8253 -76.7831 346° North 269 310 7,800 -1,200 Descending New York Center